Wetterdaten: Woche 11.09.17 - 17.09.17 (KW37)
Datum Zeit Temp. 2m rel. Feuchte Luftdruck Regen Wind Richtung Sonne ET UV-Index Solar Taupunkt Ben
11.09.2017 00:00 13,9 C 77 % 999,5 hPa 0,0 mm 7,6 km/h (2 Bft) S-SW 0,00 h 0,0 mm 0,0 UV-I 0 W/m 9,8 C 21,1 km/h (4 Bft)
11.09.2017 01:00 13,7 C 79 % 998,5 hPa 0,0 mm 5,4 km/h (1 Bft) S-SW 0,00 h 0,0 mm 0,0 UV-I 0 W/m 10,1 C 14,4 km/h (3 Bft)
11.09.2017 02:00 14,2 C 79 % 997,7 hPa 0,0 mm 8,0 km/h (2 Bft) W-SW 0,00 h 0,0 mm 0,0 UV-I 0 W/m 10,6 C 18,7 km/h (3 Bft)
11.09.2017 03:00 14,8 C 79 % 997,2 hPa 0,0 mm 8,8 km/h (2 Bft) W-SW 0,00 h 0,0 mm 0,0 UV-I 0 W/m 11,1 C 22,2 km/h (4 Bft)
11.09.2017 04:00 14,9 C 79 % 996,7 hPa 0,0 mm 6,5 km/h (2 Bft) O 0,00 h 0,0 mm 0,0 UV-I 0 W/m 11,3 C 15,7 km/h (3 Bft)
11.09.2017 05:00 14,6 C 81 % 996,4 hPa 0,0 mm 5,4 km/h (1 Bft) O 0,00 h 0,0 mm 0,0 UV-I 0 W/m 11,5 C 13,9 km/h (3 Bft)
11.09.2017 06:00 14,0 C 87 % 996,3 hPa 0,2 mm 7,3 km/h (2 Bft) O 0,00 h 0,0 mm 0,0 UV-I 0 W/m 11,8 C 18,9 km/h (3 Bft)
11.09.2017 07:00 12,7 C 88 % 996,5 hPa 0,6 mm 10,6 km/h (2 Bft) NW 0,00 h 0,0 mm 0,0 UV-I 5 W/m 10,8 C 23,7 km/h (4 Bft)
11.09.2017 08:00 12,0 C 92 % 996,7 hPa 0,8 mm 4,4 km/h (1 Bft) SW 0,00 h 0,0 mm 0,0 UV-I 39 W/m 10,8 C 12,0 km/h (2 Bft)
11.09.2017 09:00 12,7 C 93 % 997,1 hPa 0,0 mm 4,7 km/h (1 Bft) W 0,75 h 0,0 mm 0,1 UV-I 255 W/m 11,6 C 13,3 km/h (3 Bft)
11.09.2017 10:00 15,0 C 80 % 997,4 hPa 0,0 mm 10,5 km/h (2 Bft) O 0,92 h 0,1 mm 0,2 UV-I 452 W/m 11,5 C 24,8 km/h (4 Bft)
11.09.2017 11:00 16,3 C 68 % 997,6 hPa 0,0 mm 14,1 km/h (3 Bft) O 1,00 h 0,3 mm 0,3 UV-I 556 W/m 10,3 C 33,9 km/h (5 Bft)
11.09.2017 12:00 16,9 C 62 % 997,7 hPa 0,0 mm 15,8 km/h (3 Bft) W 0,58 h 0,3 mm 0,3 UV-I 475 W/m 9,4 C 37,8 km/h (5 Bft)
11.09.2017 13:00 17,9 C 56 % 997,8 hPa 0,0 mm 15,5 km/h (3 Bft) N 0,67 h 0,3 mm 0,4 UV-I 522 W/m 9,0 C 33,7 km/h (5 Bft)
11.09.2017 14:00 17,9 C 55 % 998,0 hPa 0,0 mm 15,6 km/h (3 Bft) NW 0,42 h 0,3 mm 0,3 UV-I 375 W/m 8,6 C 35,7 km/h (5 Bft)
11.09.2017 15:00 18,8 C 52 % 998,0 hPa 0,0 mm 15,1 km/h (3 Bft) NW 0,83 h 0,3 mm 0,3 UV-I 483 W/m 8,7 C 35,9 km/h (5 Bft)
11.09.2017 16:00 18,4 C 53 % 998,2 hPa 0,0 mm 14,0 km/h (3 Bft) NW 0,08 h 0,3 mm 0,2 UV-I 176 W/m 8,5 C 32,0 km/h (5 Bft)
11.09.2017 17:00 17,8 C 54 % 998,2 hPa 0,0 mm 12,4 km/h (3 Bft) NW 0,17 h 0,2 mm 0,1 UV-I 148 W/m 8,5 C 29,1 km/h (5 Bft)
11.09.2017 18:00 17,2 C 58 % 998,6 hPa 0,0 mm 12,9 km/h (3 Bft) N-NW 0,00 h 0,1 mm 0,0 UV-I 47 W/m 8,9 C 32,6 km/h (5 Bft)
11.09.2017 19:00 16,1 C 66 % 998,9 hPa 0,0 mm 11,4 km/h (2 Bft) N-NW 0,08 h 0,1 mm 0,0 UV-I 16 W/m 9,8 C 27,0 km/h (4 Bft)
11.09.2017 20:00 14,6 C 76 % 999,8 hPa 0,0 mm 8,0 km/h (2 Bft) W 0,00 h 0,1 mm 0,0 UV-I 0 W/m 10,5 C 20,2 km/h (4 Bft)
11.09.2017 21:00 14,5 C 73 % 1000,1 hPa 0,0 mm 9,3 km/h (2 Bft) N-NW 0,00 h 0,0 mm 0,0 UV-I 0 W/m 9,7 C 22,8 km/h (4 Bft)
11.09.2017 22:00 14,3 C 74 % 1000,3 hPa 0,0 mm 9,0 km/h (2 Bft) W-NW 0,00 h 0,0 mm 0,0 UV-I 0 W/m 9,7 C 22,4 km/h (4 Bft)
11.09.2017 23:00 14,3 C 74 % 1000,6 hPa 0,0 mm 10,6 km/h (2 Bft) NW 0,00 h 0,0 mm 0,0 UV-I 0 W/m 9,7 C 25,7 km/h (4 Bft)
12.09.2017 00:00 14,5 C 73 % 1000,5 hPa 0,0 mm 12,9 km/h (3 Bft) W-NW 0,00 h 0,0 mm 0,0 UV-I 0 W/m 9,7 C 30,2 km/h (5 Bft)
12.09.2017 01:00 14,3 C 74 % 1000,6 hPa 0,0 mm 10,4 km/h (2 Bft) NW 0,00 h 0,0 mm 0,0 UV-I 0 W/m 9,8 C 23,9 km/h (4 Bft)
12.09.2017 02:00 14,0 C 77 % 1001,0 hPa 0,0 mm 5,6 km/h (1 Bft) W 0,00 h 0,0 mm 0,0 UV-I 0 W/m 10,1 C 14,1 km/h (3 Bft)
12.09.2017 03:00 14,2 C 77 % 1001,4 hPa 0,0 mm 5,4 km/h (1 Bft) W-SW 0,00 h 0,0 mm 0,0 UV-I 0 W/m 10,3 C 14,2 km/h (3 Bft)
12.09.2017 04:00 13,7 C 82 % 1001,5 hPa 0,4 mm 9,1 km/h (2 Bft) N-NW 0,00 h 0,0 mm 0,0 UV-I 0 W/m 10,6 C 21,1 km/h (4 Bft)
12.09.2017 05:00 12,6 C 89 % 1001,8 hPa 0,4 mm 6,6 km/h (2 Bft) NW 0,00 h 0,0 mm 0,0 UV-I 0 W/m 10,9 C 14,4 km/h (3 Bft)
12.09.2017 06:00 12,6 C 90 % 1002,4 hPa 0,0 mm 9,3 km/h (2 Bft) N-NW 0,00 h 0,0 mm 0,0 UV-I 0 W/m 11,0 C 22,2 km/h (4 Bft)
12.09.2017 07:00 12,4 C 91 % 1003,3 hPa 0,8 mm 9,5 km/h (2 Bft) N-NW 0,00 h 0,0 mm 0,0 UV-I 11 W/m 11,0 C 24,4 km/h (4 Bft)
12.09.2017 08:00 12,5 C 91 % 1004,0 hPa 0,0 mm 9,5 km/h (2 Bft) N-NW 0,00 h 0,0 mm 0,0 UV-I 63 W/m 11,0 C 22,4 km/h (4 Bft)
12.09.2017 09:00 13,3 C 88 % 1004,7 hPa 0,0 mm 10,1 km/h (2 Bft) N-NW 0,08 h 0,1 mm 0,0 UV-I 155 W/m 11,3 C 23,3 km/h (4 Bft)
12.09.2017 10:00 13,8 C 86 % 1005,6 hPa 0,0 mm 9,9 km/h (2 Bft) W-NW 0,08 h 0,1 mm 0,1 UV-I 222 W/m 11,5 C 24,5 km/h (4 Bft)
12.09.2017 11:00 15,7 C 77 % 1006,0 hPa 0,0 mm 12,8 km/h (3 Bft) O 0,75 h 0,1 mm 0,4 UV-I 600 W/m 11,7 C 28,7 km/h (4 Bft)
12.09.2017 12:00 17,0 C 69 % 1006,4 hPa 0,0 mm 13,3 km/h (3 Bft) O 0,83 h 0,3 mm 0,4 UV-I 624 W/m 11,1 C 29,8 km/h (5 Bft)
12.09.2017 13:00 17,8 C 62 % 1006,7 hPa 0,0 mm 15,3 km/h (3 Bft) O 0,75 h 0,4 mm 0,4 UV-I 557 W/m 10,4 C 32,6 km/h (5 Bft)
12.09.2017 14:00 18,6 C 59 % 1007,1 hPa 0,0 mm 14,6 km/h (3 Bft) O 0,92 h 0,4 mm 0,4 UV-I 619 W/m 10,4 C 32,2 km/h (5 Bft)
12.09.2017 15:00 16,0 C 71 % 1007,7 hPa 0,4 mm 8,6 km/h (2 Bft) O 0,33 h 0,4 mm 0,2 UV-I 253 W/m 10,5 C 22,6 km/h (4 Bft)
12.09.2017 16:00 15,6 C 73 % 1008,2 hPa 0,2 mm 9,2 km/h (2 Bft) O 0,50 h 0,2 mm 0,2 UV-I 241 W/m 10,8 C 20,7 km/h (4 Bft)
12.09.2017 17:00 16,4 C 71 % 1008,5 hPa 0,2 mm 6,7 km/h (2 Bft) O 0,75 h 0,2 mm 0,1 UV-I 256 W/m 11,1 C 15,0 km/h (3 Bft)
12.09.2017 18:00 16,5 C 71 % 1008,6 hPa 0,0 mm 4,5 km/h (1 Bft) O 0,33 h 0,2 mm 0,0 UV-I 104 W/m 11,3 C 10,7 km/h (2 Bft)
12.09.2017 19:00 14,9 C 79 % 1008,7 hPa 0,0 mm 6,8 km/h (2 Bft) O 0,08 h 0,1 mm 0,0 UV-I 12 W/m 11,3 C 14,4 km/h (3 Bft)
12.09.2017 20:00 13,4 C 82 % 1009,2 hPa 0,0 mm 3,3 km/h (1 Bft) O 0,00 h 0,0 mm 0,0 UV-I 0 W/m 10,3 C 9,1 km/h (2 Bft)
12.09.2017 21:00 12,9 C 84 % 1009,5 hPa 0,0 mm 4,2 km/h (1 Bft) O 0,00 h 0,0 mm 0,0 UV-I 0 W/m 10,3 C 9,3 km/h (2 Bft)
12.09.2017 22:00 12,3 C 85 % 1009,5 hPa 0,0 mm 3,7 km/h (1 Bft) O 0,00 h 0,0 mm 0,0 UV-I 0 W/m 9,8 C 9,6 km/h (2 Bft)
12.09.2017 23:00 12,0 C 85 % 1009,6 hPa 0,0 mm 4,1 km/h (1 Bft) O 0,00 h 0,0 mm 0,0 UV-I 0 W/m 9,5 C 10,4 km/h (2 Bft)
13.09.2017 00:00 11,8 C 86 % 1008,7 hPa 0,0 mm 4,9 km/h (1 Bft) O 0,00 h 0,0 mm 0,0 UV-I 0 W/m 9,5 C 11,8 km/h (2 Bft)
13.09.2017 01:00 12,6 C 84 % 1007,4 hPa 0,0 mm 6,8 km/h (2 Bft) O 0,00 h 0,0 mm 0,0 UV-I 0 W/m 10,0 C 15,5 km/h (3 Bft)
13.09.2017 02:00 13,1 C 82 % 1005,6 hPa 0,0 mm 6,7 km/h (2 Bft) O 0,00 h 0,0 mm 0,0 UV-I 0 W/m 10,1 C 15,7 km/h (3 Bft)
13.09.2017 03:00 13,4 C 81 % 1003,3 hPa 0,0 mm 8,8 km/h (2 Bft) O 0,00 h 0,0 mm 0,0 UV-I 0 W/m 10,2 C 21,8 km/h (4 Bft)
13.09.2017 04:00 14,2 C 76 % 1001,5 hPa 1,0 mm 13,7 km/h (3 Bft) SW 0,00 h 0,0 mm 0,0 UV-I 0 W/m 10,0 C 32,7 km/h (5 Bft)
13.09.2017 05:00 12,9 C 85 % 1000,3 hPa 0,8 mm 10,7 km/h (2 Bft) S-SW 0,00 h 0,0 mm 0,0 UV-I 0 W/m 10,5 C 27,0 km/h (4 Bft)
13.09.2017 06:00 13,2 C 84 % 999,0 hPa 0,4 mm 14,7 km/h (3 Bft) W-SW 0,00 h 0,0 mm 0,0 UV-I 0 W/m 10,5 C 33,5 km/h (5 Bft)
13.09.2017 07:00 13,6 C 85 % 998,5 hPa 0,0 mm 12,5 km/h (3 Bft) W-SW 0,00 h 0,0 mm 0,0 UV-I 13 W/m 11,1 C 29,4 km/h (5 Bft)
13.09.2017 08:00 14,7 C 85 % 998,8 hPa 0,4 mm 14,0 km/h (3 Bft) NW 0,00 h 0,0 mm 0,0 UV-I 39 W/m 12,2 C 34,4 km/h (5 Bft)
13.09.2017 09:00 16,0 C 78 % 998,9 hPa 0,2 mm 19,4 km/h (3 Bft) O 0,83 h 0,1 mm 0,0 UV-I 277 W/m 12,1 C 44,8 km/h (6 Bft)
13.09.2017 10:00 17,3 C 68 % 999,4 hPa 0,0 mm 19,8 km/h (4 Bft) O 0,17 h 0,2 mm 0,2 UV-I 213 W/m 11,3 C 43,0 km/h (6 Bft)
13.09.2017 11:00 16,3 C 72 % 1000,2 hPa 0,0 mm 20,3 km/h (4 Bft) O 0,00 h 0,2 mm 0,2 UV-I 128 W/m 11,2 C 42,6 km/h (6 Bft)
13.09.2017 12:00 17,3 C 67 % 1000,7 hPa 0,0 mm 22,0 km/h (4 Bft) O 0,67 h 0,1 mm 0,6 UV-I 500 W/m 11,0 C 47,8 km/h (6 Bft)
13.09.2017 13:00 18,0 C 62 % 1001,4 hPa 0,0 mm 22,4 km/h (4 Bft) O 0,50 h 0,3 mm 0,5 UV-I 454 W/m 10,6 C 49,8 km/h (6 Bft)
13.09.2017 14:00 18,0 C 60 % 1002,1 hPa 0,0 mm 21,2 km/h (4 Bft) O 0,33 h 0,3 mm 0,4 UV-I 375 W/m 10,0 C 45,7 km/h (6 Bft)
13.09.2017 15:00 17,2 C 64 % 1002,5 hPa 0,0 mm 18,8 km/h (3 Bft) O 0,08 h 0,3 mm 0,1 UV-I 166 W/m 10,4 C 42,2 km/h (6 Bft)
13.09.2017 16:00 14,3 C 81 % 1002,7 hPa 0,2 mm 16,5 km/h (3 Bft) O 0,17 h 0,2 mm 0,2 UV-I 107 W/m 10,9 C 35,9 km/h (5 Bft)
13.09.2017 17:00 15,6 C 75 % 1002,2 hPa 0,0 mm 14,8 km/h (3 Bft) O 0,33 h 0,1 mm 0,2 UV-I 177 W/m 11,2 C 35,7 km/h (5 Bft)
13.09.2017 18:00 15,9 C 70 % 1002,0 hPa 0,0 mm 15,4 km/h (3 Bft) O 0,75 h 0,1 mm 0,0 UV-I 139 W/m 10,4 C 33,0 km/h (5 Bft)
13.09.2017 19:00 15,8 C 69 % 1001,6 hPa 0,0 mm 12,3 km/h (3 Bft) N-NW 0,50 h 0,1 mm 0,0 UV-I 31 W/m 10,2 C 29,1 km/h (5 Bft)
13.09.2017 20:00 15,4 C 68 % 1001,3 hPa 0,0 mm 12,1 km/h (2 Bft) O 0,00 h 0,1 mm 0,0 UV-I 0 W/m 9,4 C 27,6 km/h (4 Bft)
13.09.2017 21:00 14,6 C 73 % 1001,5 hPa 0,0 mm 4,1 km/h (1 Bft) NW 0,00 h 0,0 mm 0,0 UV-I 0 W/m 9,8 C 10,7 km/h (2 Bft)
13.09.2017 22:00 14,3 C 79 % 1001,5 hPa 0,0 mm 5,1 km/h (1 Bft) W 0,00 h 0,0 mm 0,0 UV-I 0 W/m 10,6 C 13,5 km/h (3 Bft)
13.09.2017 23:00 14,3 C 79 % 1001,5 hPa 0,0 mm 11,9 km/h (2 Bft) W 0,00 h 0,0 mm 0,0 UV-I 0 W/m 10,7 C 28,9 km/h (5 Bft)
14.09.2017 00:00 13,7 C 79 % 1001,3 hPa 0,0 mm 11,5 km/h (2 Bft) W-NW 0,00 h 0,0 mm 0,0 UV-I 0 W/m 10,2 C 26,3 km/h (4 Bft)
14.09.2017 01:00 13,5 C 80 % 1001,4 hPa 0,0 mm 14,0 km/h (3 Bft) W-NW 0,00 h 0,0 mm 0,0 UV-I 0 W/m 10,1 C 30,6 km/h (5 Bft)
14.09.2017 02:00 13,4 C 80 % 1001,5 hPa 0,0 mm 10,9 km/h (2 Bft) O 0,00 h 0,0 mm 0,0 UV-I 0 W/m 10,0 C 25,4 km/h (4 Bft)
14.09.2017 03:00 12,9 C 80 % 1001,2 hPa 0,0 mm 9,8 km/h (2 Bft) O 0,00 h 0,0 mm 0,0 UV-I 0 W/m 9,6 C 21,7 km/h (4 Bft)
14.09.2017 04:00 12,2 C 82 % 1001,0 hPa 0,0 mm 4,8 km/h (1 Bft) O 0,00 h 0,0 mm 0,0 UV-I 0 W/m 9,3 C 10,4 km/h (2 Bft)
14.09.2017 05:00 12,0 C 85 % 1000,7 hPa 0,0 mm 6,5 km/h (2 Bft) O 0,00 h 0,0 mm 0,0 UV-I 0 W/m 9,5 C 15,0 km/h (3 Bft)
14.09.2017 06:00 12,2 C 84 % 1000,4 hPa 0,0 mm 5,6 km/h (1 Bft) O 0,00 h 0,0 mm 0,0 UV-I 0 W/m 9,6 C 13,3 km/h (3 Bft)
14.09.2017 07:00 12,0 C 84 % 1000,2 hPa 0,0 mm 3,3 km/h (1 Bft) O 0,00 h 0,0 mm 0,0 UV-I 6 W/m 9,3 C 9,4 km/h (2 Bft)
14.09.2017 08:00 12,0 C 83 % 1000,2 hPa 0,0 mm 5,2 km/h (1 Bft) O 0,00 h 0,0 mm 0,0 UV-I 48 W/m 9,2 C 13,3 km/h (3 Bft)
14.09.2017 09:00 12,0 C 83 % 1000,5 hPa 0,0 mm 8,6 km/h (2 Bft) O 0,00 h 0,0 mm 0,1 UV-I 79 W/m 9,3 C 20,9 km/h (4 Bft)
14.09.2017 10:00 12,9 C 76 % 1001,4 hPa 0,0 mm 17,5 km/h (3 Bft) O 0,00 h 0,1 mm 0,1 UV-I 168 W/m 8,7 C 36,7 km/h (5 Bft)
14.09.2017 11:00 13,3 C 73 % 1002,0 hPa 0,0 mm 18,4 km/h (3 Bft) O 0,08 h 0,1 mm 0,2 UV-I 213 W/m 8,5 C 39,4 km/h (6 Bft)
14.09.2017 12:00 13,1 C 76 % 1002,8 hPa 0,8 mm 19,3 km/h (3 Bft) O 0,25 h 0,2 mm 0,3 UV-I 235 W/m 8,8 C 40,5 km/h (6 Bft)
14.09.2017 13:00 12,9 C 82 % 1003,5 hPa 0,0 mm 16,4 km/h (3 Bft) O 0,58 h 0,2 mm 0,4 UV-I 496 W/m 10,0 C 36,3 km/h (5 Bft)
14.09.2017 14:00 13,6 C 76 % 1003,9 hPa 0,6 mm 16,6 km/h (3 Bft) O 0,50 h 0,3 mm 0,4 UV-I 389 W/m 9,2 C 38,7 km/h (5 Bft)
14.09.2017 15:00 13,7 C 74 % 1004,4 hPa 0,0 mm 20,4 km/h (4 Bft) NW 0,17 h 0,2 mm 0,1 UV-I 250 W/m 9,1 C 49,8 km/h (6 Bft)
14.09.2017 16:00 12,7 C 75 % 1005,2 hPa 0,0 mm 19,9 km/h (4 Bft) NW 0,00 h 0,2 mm 0,0 UV-I 115 W/m 8,4 C 44,6 km/h (6 Bft)
14.09.2017 17:00 10,8 C 87 % 1005,9 hPa 3,6 mm 23,0 km/h (4 Bft) O 0,00 h 0,1 mm 0,0 UV-I 31 W/m 8,8 C 51,3 km/h (7 Bft)
14.09.2017 18:00 10,2 C 93 % 1005,9 hPa 2,0 mm 17,8 km/h (3 Bft) O 0,00 h 0,0 mm 0,0 UV-I 15 W/m 9,1 C 40,4 km/h (6 Bft)
14.09.2017 19:00 10,6 C 95 % 1006,8 hPa 1,6 mm 23,1 km/h (4 Bft) NW 0,00 h 0,0 mm 0,0 UV-I 5 W/m 9,8 C 46,8 km/h (6 Bft)
14.09.2017 20:00 10,9 C 95 % 1008,4 hPa 1,0 mm 23,3 km/h (4 Bft) O 0,00 h 0,0 mm 0,0 UV-I 0 W/m 10,1 C 49,2 km/h (6 Bft)
14.09.2017 21:00 11,2 C 95 % 1009,8 hPa 0,6 mm 18,8 km/h (3 Bft) O 0,00 h 0,0 mm 0,0 UV-I 0 W/m 10,4 C 41,1 km/h (6 Bft)
14.09.2017 22:00 11,3 C 95 % 1010,7 hPa 0,0 mm 15,9 km/h (3 Bft) W-NW 0,00 h 0,0 mm 0,0 UV-I 0 W/m 10,4 C 35,4 km/h (5 Bft)
14.09.2017 23:00 11,2 C 94 % 1011,6 hPa 0,0 mm 13,3 km/h (3 Bft) W-NW 0,00 h 0,0 mm 0,0 UV-I 0 W/m 10,3 C 28,7 km/h (4 Bft)
15.09.2017 00:00 11,2 C 94 % 1012,0 hPa 0,2 mm 10,3 km/h (2 Bft) W-NW 0,00 h 0,0 mm 0,0 UV-I 0 W/m 10,2 C 22,2 km/h (4 Bft)
15.09.2017 01:00 10,7 C 93 % 1012,3 hPa 0,0 mm 8,8 km/h (2 Bft) W-NW 0,00 h 0,0 mm 0,0 UV-I 0 W/m 9,7 C 17,9 km/h (3 Bft)
15.09.2017 02:00 10,4 C 93 % 1012,5 hPa 0,0 mm 7,4 km/h (2 Bft) W 0,00 h 0,0 mm 0,0 UV-I 0 W/m 9,2 C 16,7 km/h (3 Bft)
15.09.2017 03:00 10,5 C 92 % 1012,6 hPa 0,0 mm 5,4 km/h (1 Bft) W 0,00 h 0,0 mm 0,0 UV-I 0 W/m 9,2 C 11,8 km/h (2 Bft)
15.09.2017 04:00 10,0 C 93 % 1012,3 hPa 0,0 mm 0,3 km/h (0 Bft) N 0,00 h 0,0 mm 0,0 UV-I 0 W/m 8,9 C 1,6 km/h (1 Bft)
15.09.2017 05:00 9,6 C 95 % 1012,2 hPa 0,0 mm 0,6 km/h (0 Bft) O 0,00 h 0,0 mm 0,0 UV-I 0 W/m 8,8 C 2,9 km/h (1 Bft)
15.09.2017 06:00 9,9 C 96 % 1012,3 hPa 0,0 mm 1,3 km/h (1 Bft) O 0,00 h 0,0 mm 0,0 UV-I 0 W/m 9,3 C 4,8 km/h (1 Bft)
15.09.2017 07:00 10,1 C 96 % 1011,9 hPa 0,0 mm 1,1 km/h (1 Bft) O 0,00 h 0,0 mm 0,0 UV-I 20 W/m 9,5 C 4,6 km/h (1 Bft)
15.09.2017 08:00 10,3 C 96 % 1011,6 hPa 0,0 mm 1,1 km/h (1 Bft) O 0,17 h 0,0 mm 0,0 UV-I 82 W/m 9,7 C 5,0 km/h (1 Bft)
15.09.2017 09:00 11,5 C 93 % 1011,8 hPa 0,0 mm 2,2 km/h (1 Bft) S-SW 0,00 h 0,1 mm 0,0 UV-I 94 W/m 10,4 C 8,0 km/h (2 Bft)
15.09.2017 10:00 12,6 C 87 % 1012,0 hPa 0,0 mm 3,7 km/h (1 Bft) O 0,00 h 0,1 mm 0,1 UV-I 168 W/m 10,5 C 10,6 km/h (2 Bft)
15.09.2017 11:00 13,7 C 83 % 1011,6 hPa 0,4 mm 7,1 km/h (2 Bft) O 0,08 h 0,1 mm 0,2 UV-I 205 W/m 10,8 C 17,4 km/h (3 Bft)
15.09.2017 12:00 13,4 C 81 % 1011,5 hPa 0,0 mm 9,6 km/h (2 Bft) O 0,17 h 0,1 mm 0,2 UV-I 287 W/m 10,2 C 22,0 km/h (4 Bft)
15.09.2017 13:00 15,0 C 71 % 1011,4 hPa 0,0 mm 8,9 km/h (2 Bft) O 0,33 h 0,2 mm 0,2 UV-I 381 W/m 9,7 C 20,9 km/h (4 Bft)
15.09.2017 14:00 15,5 C 69 % 1011,3 hPa 0,0 mm 9,0 km/h (2 Bft) O 0,50 h 0,2 mm 0,3 UV-I 438 W/m 9,9 C 21,8 km/h (4 Bft)
15.09.2017 15:00 15,8 C 66 % 1011,1 hPa 0,0 mm 10,1 km/h (2 Bft) O 1,00 h 0,2 mm 0,3 UV-I 555 W/m 9,4 C 22,4 km/h (4 Bft)
15.09.2017 16:00 16,1 C 67 % 1010,9 hPa 0,2 mm 9,7 km/h (2 Bft) O 0,67 h 0,3 mm 0,2 UV-I 339 W/m 10,0 C 21,5 km/h (4 Bft)
15.09.2017 17:00 13,4 C 77 % 1010,9 hPa 0,0 mm 9,1 km/h (2 Bft) NW 0,00 h 0,2 mm 0,0 UV-I 76 W/m 9,3 C 19,6 km/h (3 Bft)
15.09.2017 18:00 13,1 C 81 % 1010,9 hPa 0,0 mm 5,3 km/h (1 Bft) W-NW 0,42 h 0,1 mm 0,0 UV-I 130 W/m 9,9 C 11,8 km/h (2 Bft)
15.09.2017 19:00 12,7 C 79 % 1010,9 hPa 0,0 mm 5,1 km/h (1 Bft) W-NW 0,00 h 0,1 mm 0,0 UV-I 14 W/m 9,2 C 11,7 km/h (2 Bft)
15.09.2017 20:00 11,9 C 80 % 1011,2 hPa 0,0 mm 1,7 km/h (1 Bft) SW 0,00 h 0,0 mm 0,0 UV-I 0 W/m 8,5 C 5,0 km/h (1 Bft)
15.09.2017 21:00 10,9 C 83 % 1011,5 hPa 0,0 mm 1,3 km/h (1 Bft) S 0,00 h 0,0 mm 0,0 UV-I 0 W/m 8,1 C 4,4 km/h (1 Bft)
15.09.2017 22:00 10,2 C 85 % 1011,3 hPa 0,0 mm 0,9 km/h (0 Bft) S-SW 0,00 h 0,0 mm 0,0 UV-I 0 W/m 7,8 C 4,6 km/h (1 Bft)
15.09.2017 23:00 9,8 C 86 % 1011,3 hPa 0,0 mm 0,5 km/h (0 Bft) O 0,00 h 0,0 mm 0,0 UV-I 0 W/m 7,7 C 1,7 km/h (1 Bft)
16.09.2017 00:00 9,5 C 88 % 1011,2 hPa 0,0 mm 0,5 km/h (0 Bft) O 0,00 h 0,0 mm 0,0 UV-I 0 W/m 7,6 C 2,8 km/h (1 Bft)
16.09.2017 01:00 9,0 C 90 % 1011,1 hPa 0,0 mm 0,4 km/h (0 Bft) O 0,00 h 0,0 mm 0,0 UV-I 0 W/m 7,4 C 2,0 km/h (1 Bft)
16.09.2017 02:00 8,5 C 91 % 1011,0 hPa 0,0 mm 1,2 km/h (1 Bft) O 0,00 h 0,0 mm 0,0 UV-I 0 W/m 7,0 C 3,9 km/h (1 Bft)
16.09.2017 03:00 7,9 C 92 % 1010,7 hPa 0,0 mm 1,2 km/h (1 Bft) O 0,00 h 0,0 mm 0,0 UV-I 0 W/m 6,7 C 4,0 km/h (1 Bft)
16.09.2017 04:00 7,6 C 93 % 1010,7 hPa 0,0 mm 1,5 km/h (1 Bft) O 0,00 h 0,0 mm 0,0 UV-I 0 W/m 6,6 C 4,1 km/h (1 Bft)
16.09.2017 05:00 7,5 C 94 % 1010,6 hPa 0,0 mm 1,5 km/h (1 Bft) O 0,00 h 0,0 mm 0,0 UV-I 0 W/m 6,6 C 4,1 km/h (1 Bft)
16.09.2017 06:00 7,6 C 95 % 1010,5 hPa 0,0 mm 1,7 km/h (1 Bft) O 0,00 h 0,0 mm 0,0 UV-I 0 W/m 6,8 C 5,5 km/h (1 Bft)
16.09.2017 07:00 7,3 C 94 % 1010,5 hPa 0,0 mm 1,3 km/h (1 Bft) O 0,00 h 0,0 mm 0,0 UV-I 12 W/m 6,5 C 4,5 km/h (1 Bft)
16.09.2017 08:00 7,6 C 96 % 1010,7 hPa 0,0 mm 1,1 km/h (1 Bft) S 0,00 h 0,0 mm 0,0 UV-I 64 W/m 6,9 C 4,1 km/h (1 Bft)
16.09.2017 09:00 9,4 C 92 % 1011,0 hPa 0,0 mm 2,9 km/h (1 Bft) O 1,00 h 0,0 mm 0,1 UV-I 302 W/m 8,2 C 8,2 km/h (2 Bft)
16.09.2017 10:00 11,9 C 82 % 1011,3 hPa 0,0 mm 3,9 km/h (1 Bft) W 1,00 h 0,2 mm 0,3 UV-I 462 W/m 9,0 C 8,9 km/h (2 Bft)
16.09.2017 11:00 14,3 C 71 % 1011,3 hPa 0,0 mm 6,3 km/h (2 Bft) O 0,92 h 0,2 mm 0,3 UV-I 514 W/m 9,0 C 15,1 km/h (3 Bft)
16.09.2017 12:00 15,9 C 62 % 1011,1 hPa 0,0 mm 7,6 km/h (2 Bft) W-NW 1,00 h 0,3 mm 0,4 UV-I 670 W/m 8,6 C 16,5 km/h (3 Bft)
16.09.2017 13:00 17,3 C 55 % 1011,0 hPa 0,0 mm 6,7 km/h (2 Bft) W-NW 0,75 h 0,4 mm 0,3 UV-I 574 W/m 8,2 C 17,0 km/h (3 Bft)
16.09.2017 14:00 16,8 C 55 % 1010,8 hPa 0,0 mm 6,5 km/h (2 Bft) W 0,33 h 0,4 mm 0,2 UV-I 270 W/m 7,8 C 14,4 km/h (3 Bft)
16.09.2017 15:00 18,0 C 50 % 1010,5 hPa 0,0 mm 5,4 km/h (1 Bft) W-NW 0,92 h 0,2 mm 0,2 UV-I 579 W/m 7,5 C 13,1 km/h (3 Bft)
16.09.2017 16:00 17,5 C 54 % 1010,3 hPa 0,0 mm 2,4 km/h (1 Bft) O 0,25 h 0,4 mm 0,1 UV-I 188 W/m 8,0 C 7,2 km/h (2 Bft)
16.09.2017 17:00 14,1 C 72 % 1010,9 hPa 4,6 mm 6,7 km/h (2 Bft) O 0,00 h 0,1 mm 0,0 UV-I 11 W/m 8,9 C 16,3 km/h (3 Bft)
16.09.2017 18:00 11,0 C 90 % 1011,1 hPa 1,6 mm 3,1 km/h (1 Bft) S-SO 0,42 h 0,0 mm 0,0 UV-I 86 W/m 9,4 C 7,6 km/h (2 Bft)
16.09.2017 19:00 11,1 C 93 % 1011,2 hPa 0,0 mm 1,6 km/h (1 Bft) S-SO 0,25 h 0,1 mm 0,0 UV-I 21 W/m 10,0 C 5,2 km/h (1 Bft)
16.09.2017 20:00 10,7 C 94 % 1011,9 hPa 0,0 mm 2,1 km/h (1 Bft) S-SO 0,00 h 0,0 mm 0,0 UV-I 0 W/m 9,7 C 5,7 km/h (1 Bft)
16.09.2017 21:00 10,6 C 94 % 1012,1 hPa 0,0 mm 3,0 km/h (1 Bft) S 0,00 h 0,0 mm 0,0 UV-I 0 W/m 9,6 C 8,7 km/h (2 Bft)
16.09.2017 22:00 10,6 C 90 % 1012,4 hPa 0,0 mm 3,7 km/h (1 Bft) S 0,00 h 0,0 mm 0,0 UV-I 0 W/m 9,0 C 11,5 km/h (2 Bft)
16.09.2017 23:00 10,5 C 91 % 1012,5 hPa 0,0 mm 1,4 km/h (1 Bft) O 0,00 h 0,0 mm 0,0 UV-I 0 W/m 9,0 C 4,6 km/h (1 Bft)
17.09.2017 00:00 9,8 C 90 % 1012,7 hPa 0,0 mm 1,2 km/h (1 Bft) S 0,00 h 0,0 mm 0,0 UV-I 0 W/m 8,3 C 4,8 km/h (1 Bft)
17.09.2017 01:00 9,1 C 93 % 1012,7 hPa 0,0 mm 1,0 km/h (0 Bft) S-SO 0,00 h 0,0 mm 0,0 UV-I 0 W/m 7,9 C 3,5 km/h (1 Bft)
17.09.2017 02:00 8,5 C 94 % 1012,6 hPa 0,0 mm 0,9 km/h (0 Bft) S-SO 0,00 h 0,0 mm 0,0 UV-I 0 W/m 7,6 C 3,9 km/h (1 Bft)
17.09.2017 03:00 8,1 C 95 % 1012,6 hPa 0,0 mm 0,9 km/h (0 Bft) S-SO 0,00 h 0,0 mm 0,0 UV-I 0 W/m 7,3 C 3,1 km/h (1 Bft)
17.09.2017 04:00 7,6 C 95 % 1012,5 hPa 0,0 mm 0,3 km/h (0 Bft) S-SO 0,00 h 0,0 mm 0,0 UV-I 0 W/m 6,9 C 1,8 km/h (1 Bft)
17.09.2017 05:00 7,8 C 96 % 1012,5 hPa 0,0 mm 1,3 km/h (1 Bft) S-SO 0,00 h 0,0 mm 0,0 UV-I 0 W/m 7,3 C 4,4 km/h (1 Bft)
17.09.2017 06:00 8,1 C 96 % 1012,6 hPa 0,0 mm 1,0 km/h (0 Bft) S-SO 0,00 h 0,0 mm 0,0 UV-I 0 W/m 7,6 C 3,7 km/h (1 Bft)
17.09.2017 07:00 8,3 C 97 % 1013,0 hPa 0,0 mm 1,6 km/h (1 Bft) SO 0,00 h 0,0 mm 0,0 UV-I 14 W/m 7,8 C 5,6 km/h (1 Bft)
17.09.2017 08:00 8,9 C 97 % 1013,4 hPa 0,0 mm 1,6 km/h (1 Bft) S-SO 0,00 h 0,0 mm 0,0 UV-I 48 W/m 8,4 C 6,1 km/h (2 Bft)
17.09.2017 09:00 9,7 C 96 % 1013,7 hPa 0,0 mm 2,2 km/h (1 Bft) S 0,00 h 0,0 mm 0,0 UV-I 130 W/m 9,0 C 8,7 km/h (2 Bft)
17.09.2017 10:00 11,0 C 91 % 1014,0 hPa 0,0 mm 3,0 km/h (1 Bft) S 0,00 h 0,1 mm 0,1 UV-I 214 W/m 9,5 C 9,4 km/h (2 Bft)
17.09.2017 11:00 12,6 C 84 % 1013,8 hPa 0,0 mm 3,5 km/h (1 Bft) S-SO 0,83 h 0,1 mm 0,4 UV-I 507 W/m 9,9 C 8,9 km/h (2 Bft)
17.09.2017 12:00 14,8 C 71 % 1013,4 hPa 0,0 mm 3,4 km/h (1 Bft) S-SW 1,00 h 0,3 mm 0,4 UV-I 677 W/m 9,5 C 10,7 km/h (2 Bft)
17.09.2017 13:00 15,6 C 65 % 1013,1 hPa 0,0 mm 2,6 km/h (1 Bft) O 0,17 h 0,4 mm 0,1 UV-I 238 W/m 9,1 C 7,2 km/h (2 Bft)
17.09.2017 14:00 16,3 C 60 % 1012,8 hPa 0,0 mm 2,9 km/h (1 Bft) O 0,67 h 0,2 mm 0,4 UV-I 523 W/m 8,6 C 8,9 km/h (2 Bft)
17.09.2017 15:00 17,5 C 52 % 1012,3 hPa 0,0 mm 4,6 km/h (1 Bft) S 1,00 h 0,3 mm 0,2 UV-I 518 W/m 7,5 C 11,1 km/h (2 Bft)
17.09.2017 16:00 16,5 C 55 % 1012,0 hPa 0,0 mm 1,8 km/h (1 Bft) O 0,08 h 0,3 mm 0,0 UV-I 155 W/m 7,4 C 5,4 km/h (1 Bft)
17.09.2017 17:00 15,6 C 63 % 1012,0 hPa 0,0 mm 0,1 km/h (0 Bft) N 0,50 h 0,1 mm 0,0 UV-I 201 W/m 8,4 C 1,5 km/h (1 Bft)
17.09.2017 18:00 15,6 C 63 % 1012,1 hPa 0,0 mm 1,7 km/h (1 Bft) S 0,00 h 0,1 mm 0,0 UV-I 57 W/m 8,6 C 6,3 km/h (2 Bft)
17.09.2017 19:00 14,6 C 73 % 1012,4 hPa 0,2 mm 2,2 km/h (1 Bft) S 0,00 h 0,1 mm 0,0 UV-I 11 W/m 9,7 C 7,6 km/h (2 Bft)
17.09.2017 20:00 13,4 C 81 % 1013,0 hPa 0,0 mm 0,7 km/h (0 Bft) S 0,00 h 0,0 mm 0,0 UV-I 0 W/m 10,1 C 3,7 km/h (1 Bft)
17.09.2017 21:00 12,8 C 84 % 1013,1 hPa 0,0 mm 0,1 km/h (0 Bft) N 0,00 h 0,0 mm 0,0 UV-I 0 W/m 10,1 C 1,5 km/h (1 Bft)
17.09.2017 22:00 12,1 C 85 % 1013,1 hPa 0,0 mm 1,1 km/h (0 Bft) S 0,00 h 0,0 mm 0,0 UV-I 0 W/m 9,7 C 3,9 km/h (1 Bft)
17.09.2017 23:00 11,6 C 86 % 1013,4 hPa 0,0 mm 0,9 km/h (0 Bft) W-NW 0,00 h 0,0 mm 0,0 UV-I 0 W/m 9,3 C 3,7 km/h (1 Bft)
Min-Datum _ 16.09.17 16.09.17 11.09.17 - 15.09.17 - - - - - 16.09.17 15.09.17
_ Min-Zeit 07:45 15:35 06:50 - 04:30 - - - - - 07:15 04:30
Minimum _ 7,2 C 47 % 996,1 hPa - 0,0 km/h (0 Bft) - - - - - 6,4 C 0,0 km/h (0 Bft)
Max-Datum _ 12.09.17 17.09.17 17.09.17 16.09.17 14.09.17 - 11.09.17 12.09.17 13.09.17 15.09.17 13.09.17 14.09.17
_ Max-Zeit 14:40 05:30 10:05 17:20 17:30 - 09:15 13:00 12:35 13:15 08:40 17:30
Maximum _ 19,2 C 97 % 1014,1 hPa 4,6 mm 34,5 km/h
O (5 Bft)
- 0,08 h 0,4 mm 0,9 UV-I 870 W/m 13,0 C 86,6 km/h
NW (9 Bft)
Durchschnitt _ 13,2 C 80 % 1006,4 hPa #24,4 mm 8,1 km/h (2 Bft) O #31:15 h #14,478 mm 0,2 UV-I 239 W/m 9,6 C 19,1 km/h (3 Bft)



© 1998 - 2017 www.pulheimwetter.de